Wausau Downtown Airport
KAUW : now visible

Airfield :











YOU CAN JOIN US ON...

 
LOGIN :

Register | Disclaimer

   EN    FR    IT 

 









Legend :    VFR   Marginal VFR   IFR   Intensive IFR   Very Intensive IFR
Visi :
Ceiling :
>= 8 km
>= 3000ft
5 to 8 km
1000 to 3000 ft
1500m to 5 km
500 to 1000 ft
800 to 1500m
200 to 500 ft
< 800m
< 200 ft
Symbols :   Thunderstorms  Fog  Heavy snow  Heavy precipitations  Wind > 20 kt






- Airport Elevation : 1201 ft


KAUW - Wausau Downtown

CURRENT METAR :
  • 211454Z AUTO 25010G20KT 7SM OVC010 01/01 A3009 RMK AO2 SLP207 T00110006 51021

EXPIRED METARs :
  • 211441Z AUTO 24016G24KT 8SM OVC011 01/01 A3010 RMK AO2 CIG 005V014 T00110006
  • 211354Z AUTO 24005G15KT 4SM BR OVC006 01/01 A3007 RMK AO2 SLP202 T00060006
  • 211254Z AUTO 25012G20KT 6SM BR OVC006 01/01 A3005 RMK AO2 SLP194 T00060006

TAF KAUW
Valid from the 21 at 16:00 until the 22 at 12:00 UTC


211532Z 2116/2212 25010G20KT P6SM OVC010
FM211800 27011G19KT P6SM SCT020 BKN100
FM212100 27008KT P6SM OVC080
FM220600 03005KT P6SM OVC050
KZMP FIR / North America



MET'MAP, your aeronautical weather chart ! - Copyright ORBIFLY December 2007 - Disclaimer

ORBIFLY MET'MAP TEAM :

Programming & Development : Alexandra Zaïnal
Concept & original design : Baudouin d'Aumeries
Assistance for programming : Marc-Olivier Méhu
Technical & hardware support : Manuel Goepfert

Contact : metmap@orbifly.com




SOURCES & CREDITS :

   NOAA       Earth
Advisory